Time;durP1;ratioP1;P1;durP2;ratioP2;P2;SDS_P1;SDS_P2;PMS_P1;PMS_P2;Temp;Humidity;BMP_temperature;BMP_pressure;BME280_temperature;BME280_humidity;BME280_pressure;Samples;Min_cycle;Max_cycle;Signal;HPM_P1;HPM_P2
2023/05/04 00:02:34;;;;;;;5.32;4.82;;;9.60;99.90;;;;;;6200546;28;20721;-78
2023/05/04 00:05:36;;;;;;;12.70;4.93;;;9.60;99.90;;;;;;6200465;28;20042;-78
2023/05/04 00:08:38;;;;;;;5.78;4.75;;;9.60;99.90;;;;;;6200106;28;20057;-78
2023/05/04 00:11:40;;;;;;;12.65;5.78;;;9.60;99.90;;;;;;6201976;28;20047;-78
2023/05/04 00:14:42;;;;;;;8.25;5.13;;;9.60;99.90;;;;;;6201609;28;20466;-78
2023/05/04 00:17:45;;;;;;;5.60;5.00;;;9.50;99.90;;;;;;6200152;28;20504;-78
2023/05/04 00:20:46;;;;;;;5.88;5.32;;;9.50;99.90;;;;;;6203312;28;20053;-77
2023/05/04 00:23:48;;;;;;;6.45;4.63;;;9.50;99.90;;;;;;6213138;28;20049;-79
2023/05/04 00:26:50;;;;;;;5.93;4.57;;;9.50;99.90;;;;;;6205326;28;20046;-79
2023/05/04 00:29:51;;;;;;;5.30;4.70;;;9.50;99.90;;;;;;6204488;28;20118;-79
2023/05/04 00:32:54;;;;;;;9.73;5.40;;;9.40;99.90;;;;;;6203482;28;20050;-79
2023/05/04 00:35:56;;;;;;;6.22;5.60;;;9.40;99.90;;;;;;6202738;28;20061;-79
2023/05/04 00:38:58;;;;;;;10.55;5.75;;;9.40;99.90;;;;;;6203945;28;20057;-79
2023/05/04 00:41:59;;;;;;;5.47;4.70;;;9.50;99.90;;;;;;6208324;28;20062;-78
2023/05/04 00:45:01;;;;;;;5.32;4.75;;;9.40;99.90;;;;;;6212162;28;20046;-79
2023/05/04 00:48:05;;;;;;;6.63;5.45;;;9.40;99.90;;;;;;6215541;28;20046;-77
2023/05/04 00:51:08;;;;;;;9.30;5.28;;;9.30;99.90;;;;;;6206502;28;20133;-78
2023/05/04 00:54:10;;;;;;;7.63;6.22;;;9.30;99.90;;;;;;6207690;28;20046;-79
2023/05/04 00:57:12;;;;;;;10.23;6.13;;;9.30;99.90;;;;;;6191727;28;20043;-78
2023/05/04 01:00:14;;;;;;;6.03;5.18;;;9.30;99.90;;;;;;6203869;28;20310;-78
2023/05/04 01:03:17;;;;;;;9.50;5.38;;;9.20;99.90;;;;;;6186254;28;20061;-78
2023/05/04 01:06:25;;;;;;;6.60;4.95;;;9.10;99.90;;;;;;6180440;28;20065;-78
2023/05/04 01:09:32;;;;;;;9.43;6.47;;;9.10;99.90;;;;;;6180971;28;20046;-79
2023/05/04 01:12:35;;;;;;;5.63;5.13;;;9.00;99.90;;;;;;6181074;28;20057;-77
2023/05/04 01:15:38;;;;;;;4.78;4.15;;;9.00;99.90;;;;;;6180443;28;20055;-78
2023/05/04 01:18:41;;;;;;;6.25;5.65;;;8.90;99.90;;;;;;6180284;28;20051;-79
2023/05/04 01:21:44;;;;;;;7.95;5.50;;;8.80;99.90;;;;;;6180693;28;20528;-78
2023/05/04 01:24:46;;;;;;;9.93;6.30;;;8.80;99.90;;;;;;6179930;28;20047;-77
2023/05/04 01:27:56;;;;;;;9.23;6.25;;;8.80;99.90;;;;;;6180555;28;20536;-79
2023/05/04 01:31:00;;;;;;;5.65;5.00;;;8.70;99.90;;;;;;6180321;28;20046;-78
2023/05/04 01:34:03;;;;;;;7.95;6.75;;;8.70;99.90;;;;;;6191768;28;20047;-79
2023/05/04 01:37:06;;;;;;;8.73;5.78;;;8.60;99.90;;;;;;6186845;28;20425;-79
2023/05/04 01:40:09;;;;;;;7.60;6.13;;;8.50;99.90;;;;;;6183700;28;20414;-80
2023/05/04 01:43:11;;;;;;;9.20;5.85;;;8.50;99.90;;;;;;6183306;28;20051;-79
2023/05/04 01:46:12;;;;;;;5.82;5.22;;;8.50;99.90;;;;;;6182018;28;20528;-78
2023/05/04 01:49:14;;;;;;;6.47;5.55;;;8.40;99.90;;;;;;6181701;28;20047;-78
2023/05/04 01:52:17;;;;;;;9.65;5.88;;;8.40;99.90;;;;;;6181347;28;20051;-78
2023/05/04 01:55:19;;;;;;;7.65;6.10;;;8.30;99.90;;;;;;6183785;28;20507;-79
2023/05/04 01:58:20;;;;;;;5.57;4.63;;;8.30;99.90;;;;;;6181550;28;20134;-79
2023/05/04 02:01:22;;;;;;;7.80;5.85;;;8.20;99.90;;;;;;6181022;28;20049;-79
2023/05/04 02:04:24;;;;;;;5.28;4.78;;;8.20;99.90;;;;;;6180767;28;20493;-78
2023/05/04 02:07:27;;;;;;;6.68;4.88;;;8.10;99.90;;;;;;6182134;28;20142;-78
2023/05/04 02:10:28;;;;;;;6.72;5.38;;;8.10;99.90;;;;;;6181263;28;20058;-79
2023/05/04 02:13:30;;;;;;;8.13;5.97;;;8.10;99.90;;;;;;6180930;28;20058;-79
2023/05/04 02:16:32;;;;;;;9.88;6.32;;;8.00;99.90;;;;;;6186293;28;20394;-77
2023/05/04 02:19:33;;;;;;;5.55;5.00;;;8.00;99.90;;;;;;6204168;28;20070;-79
2023/05/04 02:22:36;;;;;;;6.85;5.57;;;8.00;99.90;;;;;;6202639;28;20039;-77
2023/05/04 02:25:40;;;;;;;9.00;6.10;;;7.90;99.90;;;;;;6203106;28;20417;-78
2023/05/04 02:28:42;;;;;;;8.55;5.45;;;7.90;99.90;;;;;;6202347;28;20444;-78
2023/05/04 02:31:43;;;;;;;13.23;4.95;;;7.90;99.90;;;;;;6203266;28;20057;-78
2023/05/04 02:34:45;;;;;;;6.28;5.65;;;7.80;99.90;;;;;;6202477;28;20077;-79
2023/05/04 02:37:48;;;;;;;11.50;5.60;;;7.70;99.90;;;;;;6201736;28;20054;-79
2023/05/04 02:40:50;;;;;;;6.53;5.85;;;7.70;99.90;;;;;;6203988;28;20065;-79
2023/05/04 02:43:51;;;;;;;9.93;5.65;;;7.60;99.90;;;;;;6215821;28;20046;-79
2023/05/04 02:46:53;;;;;;;6.95;5.78;;;7.60;99.90;;;;;;6203388;28;20042;-78
2023/05/04 02:49:55;;;;;;;10.40;7.55;;;7.50;99.90;;;;;;6201638;28;20042;-78
2023/05/04 02:52:58;;;;;;;8.90;6.03;;;7.50;99.90;;;;;;6201952;28;20046;-78
2023/05/04 02:55:59;;;;;;;7.65;6.15;;;7.50;99.90;;;;;;6201149;28;20084;-78
2023/05/04 02:59:01;;;;;;;7.68;5.63;;;7.40;99.90;;;;;;6201129;28;20054;-78
2023/05/04 03:02:05;;;;;;;11.15;6.00;;;7.40;99.90;;;;;;6202416;28;20565;-77
2023/05/04 03:05:07;;;;;;;7.78;5.70;;;7.40;99.90;;;;;;6197595;28;20038;-79
2023/05/04 03:08:10;;;;;;;11.07;6.57;;;7.30;99.90;;;;;;6177133;28;20105;-78
2023/05/04 03:11:13;;;;;;;9.73;6.07;;;7.30;99.90;;;;;;6177865;28;20051;-79
2023/05/04 03:14:15;;;;;;;10.02;6.60;;;7.30;99.90;;;;;;6177011;28;20042;-78
2023/05/04 03:17:16;;;;;;;9.75;6.60;;;7.30;99.90;;;;;;6176905;28;20054;-79
2023/05/04 03:20:20;;;;;;;9.60;7.63;;;7.30;99.90;;;;;;6176809;28;20051;-78
2023/05/04 03:23:23;;;;;;;9.88;6.90;;;7.20;99.90;;;;;;6178158;28;20059;-79
2023/05/04 03:26:25;;;;;;;14.80;8.00;;;7.20;99.90;;;;;;6178032;28;20530;-78
2023/05/04 03:29:27;;;;;;;7.72;6.45;;;7.20;99.90;;;;;;6176504;28;20051;-78
2023/05/04 03:32:28;;;;;;;8.18;6.72;;;7.20;99.90;;;;;;6176967;28;20659;-80
2023/05/04 03:35:30;;;;;;;10.07;8.18;;;7.20;99.90;;;;;;6177856;28;20055;-79
2023/05/04 03:38:33;;;;;;;8.80;7.82;;;7.20;99.90;;;;;;6176782;28;20148;-79
2023/05/04 03:41:35;;;;;;;11.02;7.30;;;7.20;99.90;;;;;;6177509;28;20070;-80
2023/05/04 03:44:37;;;;;;;12.75;8.45;;;7.20;99.90;;;;;;6176989;28;20051;-79
2023/05/04 03:47:39;;;;;;;11.60;7.82;;;7.20;99.90;;;;;;6177362;28;20429;-79
2023/05/04 03:50:41;;;;;;;7.72;6.93;;;7.20;99.90;;;;;;6186110;28;20039;-80
2023/05/04 03:53:44;;;;;;;7.90;7.10;;;7.20;99.90;;;;;;6179056;28;20053;-79
2023/05/04 03:56:46;;;;;;;14.95;8.55;;;7.20;99.90;;;;;;6178358;28;20047;-79
2023/05/04 03:59:47;;;;;;;9.65;7.63;;;7.10;99.90;;;;;;6181482;28;20485;-79
2023/05/04 04:02:49;;;;;;;10.55;7.88;;;7.10;99.90;;;;;;6176856;28;20394;-79
2023/05/04 04:05:51;;;;;;;11.18;6.80;;;7.20;99.90;;;;;;6177231;28;20062;-79
2023/05/04 04:08:54;;;;;;;11.52;8.00;;;7.10;99.90;;;;;;6178337;28;21292;-79
2023/05/04 04:11:56;;;;;;;8.52;7.68;;;7.10;99.90;;;;;;6175918;28;20043;-78
2023/05/04 04:14:57;;;;;;;8.98;7.07;;;7.20;99.90;;;;;;6175080;28;20051;-79
2023/05/04 04:17:59;;;;;;;14.38;8.55;;;7.20;99.90;;;;;;6175804;28;20394;-78
2023/05/04 04:21:01;;;;;;;10.07;8.20;;;7.20;99.90;;;;;;6175738;28;20051;-80
2023/05/04 04:24:05;;;;;;;11.90;8.27;;;7.30;99.90;;;;;;6175641;28;20050;-79
2023/05/04 04:27:07;;;;;;;11.32;9.93;;;7.30;99.90;;;;;;6175624;28;20050;-80
2023/05/04 04:30:11;;;;;;;11.35;8.80;;;7.40;99.90;;;;;;6176737;28;20373;-78
2023/05/04 04:33:13;;;;;;;13.38;9.15;;;7.50;99.90;;;;;;6179547;28;20043;-78
2023/05/04 04:36:17;;;;;;;12.43;8.70;;;7.50;99.90;;;;;;6175392;28;20055;-78
2023/05/04 04:39:20;;;;;;;13.85;8.20;;;7.60;99.90;;;;;;6176031;28;20054;-79
2023/05/04 04:42:21;;;;;;;12.60;8.05;;;7.60;99.90;;;;;;6175808;28;20047;-78
2023/05/04 04:45:23;;;;;;;11.43;8.27;;;7.70;99.90;;;;;;6175284;28;20043;-78
2023/05/04 04:48:25;;;;;;;12.35;8.80;;;7.90;99.90;;;;;;6215072;23;20180;-77
2023/05/04 04:51:26;;;;;;;17.95;10.18;;;8.10;99.90;;;;;;6193742;28;20165;-77
2023/05/04 04:54:30;;;;;;;16.92;9.13;;;8.30;99.90;;;;;;6195949;28;20047;-78
2023/05/04 04:57:32;;;;;;;13.38;9.55;;;8.40;99.90;;;;;;6205928;28;20531;-77
2023/05/04 05:00:34;;;;;;;15.60;9.68;;;8.60;99.90;;;;;;6221092;28;20144;-78
2023/05/04 05:03:36;;;;;;;13.60;10.02;;;8.80;99.90;;;;;;6185815;28;20054;-78
2023/05/04 05:06:37;;;;;;;12.73;10.20;;;9.00;99.90;;;;;;6173619;28;20047;-78
2023/05/04 05:09:41;;;;;;;10.75;9.32;;;9.20;99.90;;;;;;6173331;28;20058;-78
2023/05/04 05:12:43;;;;;;;18.27;8.77;;;9.40;99.90;;;;;;6172593;28;20050;-78
2023/05/04 05:15:45;;;;;;;12.48;9.60;;;9.60;99.90;;;;;;6173109;28;20058;-78
2023/05/04 05:18:46;;;;;;;11.73;10.00;;;9.80;99.90;;;;;;6172819;28;20047;-79
2023/05/04 05:21:48;;;;;;;13.80;10.15;;;10.10;99.90;;;;;;6173242;28;20486;-78
2023/05/04 05:24:51;;;;;;;13.10;9.73;;;10.40;99.90;;;;;;6173144;28;20054;-78
2023/05/04 05:27:53;;;;;;;12.15;9.05;;;10.60;99.90;;;;;;6177576;28;20051;-78
2023/05/04 05:30:55;;;;;;;14.32;9.63;;;10.90;99.90;;;;;;6177394;28;20047;-78
2023/05/04 05:33:56;;;;;;;10.45;9.32;;;11.20;99.90;;;;;;6177568;28;20057;-79
2023/05/04 05:36:58;;;;;;;20.13;10.00;;;11.50;99.90;;;;;;6176798;28;20053;-79
2023/05/04 05:40:04;;;;;;;12.00;9.10;;;11.80;99.90;;;;;;6176775;28;20682;-78
2023/05/04 05:43:06;;;;;;;10.68;8.90;;;12.20;99.90;;;;;;6176817;28;20129;-78
2023/05/04 05:46:08;;;;;;;11.93;9.15;;;12.80;99.90;;;;;;6176140;28;20046;-78
2023/05/04 05:49:10;;;;;;;13.88;11.02;;;13.50;99.90;;;;;;6176369;28;20051;-78
2023/05/04 05:52:11;;;;;;;10.57;9.48;;;14.20;99.90;;;;;;6175728;28;20143;-78
2023/05/04 05:55:14;;;;;;;13.88;9.88;;;14.70;99.90;;;;;;6176747;28;20050;-78
2023/05/04 05:58:16;;;;;;;10.43;9.25;;;15.00;99.90;;;;;;6176260;28;20062;-78
2023/05/04 06:01:18;;;;;;;10.13;9.05;;;15.40;99.90;;;;;;6176970;28;20055;-78
2023/05/04 06:04:20;;;;;;;10.20;8.65;;;15.90;99.90;;;;;;6177790;28;20445;-78
2023/05/04 06:07:22;;;;;;;15.57;9.80;;;16.30;99.90;;;;;;6181780;28;20524;-79
2023/05/04 06:10:25;;;;;;;14.48;9.35;;;16.80;99.90;;;;;;6177942;28;20051;-79
2023/05/04 06:13:27;;;;;;;10.05;8.02;;;17.10;99.20;;;;;;6176806;28;20050;-78
2023/05/04 06:16:28;;;;;;;15.27;9.50;;;17.30;98.00;;;;;;6177708;28;20046;-78
2023/05/04 06:19:30;;;;;;;12.38;9.05;;;17.60;97.30;;;;;;6176995;28;20497;-78
2023/05/04 06:22:32;;;;;;;11.48;10.30;;;17.90;97.00;;;;;;6176134;28;20050;-79
2023/05/04 06:25:35;;;;;;;13.88;9.30;;;18.20;96.10;;;;;;6175780;28;20053;-78
2023/05/04 06:28:37;;;;;;;12.07;10.02;;;18.30;95.40;;;;;;6177799;28;20043;-78
2023/05/04 06:31:38;;;;;;;10.82;8.60;;;18.40;95.30;;;;;;6178496;28;20054;-79
2023/05/04 06:34:40;;;;;;;11.57;9.70;;;18.60;95.10;;;;;;6177145;28;20051;-79
2023/05/04 06:37:42;;;;;;;13.35;8.85;;;18.70;94.60;;;;;;6176194;28;20425;-78
2023/05/04 06:40:45;;;;;;;9.05;7.95;;;19.00;94.50;;;;;;6177802;28;20043;-79
2023/05/04 06:43:46;;;;;;;9.90;8.85;;;19.20;93.70;;;;;;6177121;28;20043;-79
2023/05/04 06:46:48;;;;;;;17.25;9.23;;;19.60;93.40;;;;;;6177401;28;20047;-79
2023/05/04 06:49:50;;;;;;;12.13;8.60;;;19.90;92.70;;;;;;6188828;28;20046;-79
2023/05/04 06:52:51;;;;;;;10.02;8.48;;;20.40;92.20;;;;;;6201067;28;20050;-80
2023/05/04 06:55:54;;;;;;;10.77;8.02;;;20.70;90.70;;;;;;6180155;28;20054;-79
2023/05/04 06:58:56;;;;;;;10.93;8.25;;;20.80;88.60;;;;;;6176118;28;20069;-79
2023/05/04 07:01:58;;;;;;;9.48;7.93;;;20.90;87.80;;;;;;6176540;28;20062;-79
2023/05/04 07:05:01;;;;;;;10.30;9.38;;;21.00;87.20;;;;;;6176220;28;20050;-80
2023/05/04 07:08:02;;;;;;;8.95;8.15;;;21.30;85.60;;;;;;6176729;28;20145;-80
2023/05/04 07:11:05;;;;;;;9.73;7.25;;;22.00;84.50;;;;;;6175951;28;20058;-80
2023/05/04 07:14:07;;;;;;;10.10;7.70;;;22.80;81.10;;;;;;6176200;28;20049;-79
2023/05/04 07:17:09;;;;;;;10.73;7.85;;;23.40;78.90;;;;;;6177058;28;20054;-79
2023/05/04 07:20:12;;;;;;;8.35;7.32;;;23.70;76.40;;;;;;6177070;28;20134;-80
2023/05/04 07:23:14;;;;;;;8.65;7.38;;;24.00;74.00;;;;;;6180470;28;20050;-80
2023/05/04 07:26:17;;;;;;;9.60;7.82;;;24.40;72.50;;;;;;6180191;28;20046;-80
2023/05/04 07:29:19;;;;;;;8.95;7.47;;;24.50;70.80;;;;;;6179058;28;20050;-81
2023/05/04 07:32:20;;;;;;;7.80;7.10;;;24.40;69.00;;;;;;6180156;28;20047;-80
2023/05/04 07:35:22;;;;;;;8.82;7.03;;;24.40;68.90;;;;;;6179971;28;20057;-79
2023/05/04 07:38:25;;;;;;;8.68;7.72;;;24.80;67.50;;;;;;6185461;28;20046;-79
2023/05/04 07:41:28;;;;;;;9.82;7.70;;;25.10;66.70;;;;;;6206397;28;20045;-81
2023/05/04 07:44:30;;;;;;;9.38;6.75;;;25.20;64.90;;;;;;6208590;28;20042;-81
2023/05/04 07:47:31;;;;;;;8.85;7.55;;;25.10;64.90;;;;;;6205778;28;20132;-81
2023/05/04 07:50:33;;;;;;;8.20;7.40;;;25.10;64.80;;;;;;6215679;28;20057;-81
2023/05/04 07:53:35;;;;;;;13.95;7.57;;;25.20;63.90;;;;;;6220385;28;20049;-81
2023/05/04 07:56:38;;;;;;;8.18;7.45;;;25.40;63.40;;;;;;6222876;28;20049;-81
2023/05/04 07:59:40;;;;;;;8.00;6.50;;;25.60;62.50;;;;;;6214685;28;20050;-79
2023/05/04 08:02:42;;;;;;;9.60;6.28;;;25.80;61.60;;;;;;6200330;28;20118;-79
2023/05/04 08:05:43;;;;;;;7.60;6.80;;;25.80;60.80;;;;;;6200077;28;20074;-80
2023/05/04 08:08:48;;;;;;;9.63;7.05;;;26.00;60.00;;;;;;6184334;28;20058;-80
2023/05/04 08:11:51;;;;;;;7.90;7.13;;;26.10;60.00;;;;;;6178673;28;20398;-79
2023/05/04 08:14:53;;;;;;;7.75;7.05;;;25.90;58.80;;;;;;6177911;28;20435;-80
2023/05/04 08:17:54;;;;;;;8.82;7.10;;;24.60;59.40;;;;;;6180832;28;20051;-80
2023/05/04 08:20:57;;;;;;;8.10;7.28;;;23.70;61.70;;;;;;6177357;28;20420;-80
2023/05/04 08:23:58;;;;;;;7.57;6.80;;;23.00;62.50;;;;;;6177137;28;20128;-79
2023/05/04 08:27:02;;;;;;;11.15;7.80;;;22.30;63.10;;;;;;6175064;28;20060;-79
2023/05/04 08:30:05;;;;;;;10.57;8.48;;;21.80;64.30;;;;;;6184590;28;20046;-79
2023/05/04 08:33:07;;;;;;;7.35;6.57;;;21.60;65.00;;;;;;6185261;28;20619;-80
2023/05/04 08:36:08;;;;;;;7.80;7.00;;;21.30;65.80;;;;;;6186083;28;20050;-79
2023/05/04 08:39:10;;;;;;;8.73;6.90;;;21.30;66.70;;;;;;6188319;28;20051;-80
2023/05/04 08:42:14;;;;;;;9.77;6.50;;;21.40;67.10;;;;;;6188235;28;20042;-80
2023/05/04 08:45:16;;;;;;;9.18;5.90;;;21.40;66.90;;;;;;6186726;28;20501;-80
2023/05/04 08:48:18;;;;;;;7.72;5.88;;;21.40;67.00;;;;;;6185987;28;20050;-79
2023/05/04 08:51:20;;;;;;;9.00;6.60;;;21.50;67.60;;;;;;6187124;28;20054;-79
2023/05/04 08:54:23;;;;;;;8.25;6.60;;;21.60;67.20;;;;;;6185708;28;20038;-80
2023/05/04 08:57:26;;;;;;;7.03;6.05;;;21.80;67.60;;;;;;6187866;28;20050;-79
2023/05/04 09:00:29;;;;;;;7.68;6.05;;;22.10;67.30;;;;;;6183781;28;20050;-79
2023/05/04 09:03:31;;;;;;;9.20;7.72;;;22.30;66.70;;;;;;6191997;28;20050;-80
2023/05/04 09:06:33;;;;;;;6.20;5.60;;;22.20;66.10;;;;;;6222544;28;20083;-80
2023/05/04 09:09:34;;;;;;;12.07;6.88;;;22.20;66.30;;;;;;6225510;28;20376;-81
2023/05/04 09:12:37;;;;;;;7.43;5.80;;;22.30;66.10;;;;;;6228713;28;20050;-81
2023/05/04 09:15:39;;;;;;;13.07;6.63;;;22.50;66.20;;;;;;6230779;28;20060;-80
2023/05/04 09:18:43;;;;;;;8.00;6.35;;;22.70;65.90;;;;;;6230490;28;20080;-80
2023/05/04 09:21:45;;;;;;;10.68;7.18;;;23.00;65.50;;;;;;6230821;28;20052;-80
2023/05/04 09:24:47;;;;;;;6.50;5.85;;;23.10;65.10;;;;;;6229136;28;20045;-81
2023/05/04 09:27:54;;;;;;;5.97;5.38;;;23.10;64.80;;;;;;6230027;28;20050;-80
2023/05/04 09:31:00;;;;;;;6.55;5.95;;;23.30;65.00;;;;;;6230033;28;20054;-82
2023/05/04 09:34:08;;;;;;;8.18;6.28;;;23.60;64.20;;;;;;6229687;28;20050;-80
2023/05/04 09:37:10;;;;;;;5.85;5.07;;;23.80;63.80;;;;;;6229286;28;20405;-80
2023/05/04 09:40:13;;;;;;;6.25;5.40;;;24.00;63.60;;;;;;6229471;28;20547;-80
2023/05/04 09:43:16;;;;;;;7.80;4.88;;;24.10;62.60;;;;;;6229825;28;20504;-81
2023/05/04 09:46:18;;;;;;;4.82;4.43;;;24.10;62.10;;;;;;6228914;28;20053;-81
2023/05/04 09:49:29;;;;;;;6.95;4.90;;;23.90;62.30;;;;;;6229309;28;20560;-81
2023/05/04 09:52:33;;;;;;;5.20;4.63;;;24.10;62.50;;;;;;6230417;28;20497;-81
2023/05/04 09:55:34;;;;;;;7.90;5.32;;;24.40;62.10;;;;;;6231104;28;20524;-81
2023/05/04 09:58:39;;;;;;;6.97;5.22;;;24.70;61.50;;;;;;6230444;28;20045;-81
2023/05/04 10:01:41;;;;;;;9.98;5.28;;;24.60;60.10;;;;;;6230609;28;20045;-81
2023/05/04 10:04:45;;;;;;;9.02;5.90;;;24.50;60.50;;;;;;6231075;28;20050;-81
2023/05/04 10:07:47;;;;;;;7.82;5.57;;;24.70;60.40;;;;;;6211351;28;20061;-81
2023/05/04 10:10:48;;;;;;;10.35;5.57;;;25.10;59.90;;;;;;6206306;28;20050;-81
2023/05/04 10:13:54;;;;;;;6.47;5.88;;;25.30;59.40;;;;;;6204346;28;20043;-80
2023/05/04 10:17:04;;;;;;;7.82;7.10;;;25.30;58.90;;;;;;6203504;28;20058;-81
2023/05/04 10:20:26;;;;;;;5.53;4.90;;;25.40;58.20;;;;;;6182438;28;20215;-80
2023/05/04 10:23:59;;;;;;;10.65;6.30;;;25.30;58.50;;;;;;6181542;28;20042;-81
2023/05/04 10:27:05;;;;;;;9.57;6.15;;;25.40;58.50;;;;;;6180508;28;20043;-81
2023/05/04 10:30:12;;;;;;;6.28;5.07;;;25.40;58.70;;;;;;6181649;28;20055;-81
2023/05/04 10:33:13;;;;;;;6.57;5.10;;;25.70;58.70;;;;;;6180926;28;20101;-81
2023/05/04 10:36:15;;;;;;;8.13;6.40;;;26.10;58.40;;;;;;6184374;28;20043;-81
2023/05/04 10:39:19;;;;;;;6.95;6.25;;;26.50;57.60;;;;;;6181130;28;20058;-81
2023/05/04 10:42:21;;;;;;;9.60;5.40;;;26.80;56.70;;;;;;6183577;28;20050;-81
2023/05/04 10:45:34;;;;;;;6.63;4.72;;;26.90;56.40;;;;;;6180592;28;20047;-81
2023/05/04 10:48:36;;;;;;;4.70;4.15;;;27.10;56.40;;;;;;6190429;28;20039;-83
2023/05/04 10:51:37;;;;;;;10.50;5.88;;;27.30;56.10;;;;;;6199573;28;20061;-83
2023/05/04 10:54:40;;;;;;;6.13;4.68;;;27.50;55.40;;;;;;6197232;28;20043;-83
2023/05/04 10:57:52;;;;;;;4.65;4.25;;;27.60;54.80;;;;;;6197300;28;20073;-83
2023/05/04 11:00:55;;;;;;;5.18;4.50;;;27.80;54.40;;;;;;6197836;28;20062;-83
2023/05/04 11:03:58;;;;;;;9.05;5.18;;;27.90;54.10;;;;;;6198696;28;20054;-83
2023/05/04 11:07:01;;;;;;;5.90;4.13;;;28.00;53.90;;;;;;6198395;28;20047;-83
2023/05/04 11:10:03;;;;;;;7.43;4.40;;;28.40;53.70;;;;;;6197770;28;20118;-83
2023/05/04 11:13:10;;;;;;;5.80;5.25;;;28.60;52.70;;;;;;6195034;28;20068;-83
2023/05/04 11:19:30;;;;;;;7.05;4.43;;;28.90;51.60;;;;;;6221070;28;20089;-82
2023/05/04 11:22:32;;;;;;;4.45;3.58;;;29.00;51.10;;;;;;6211206;28;20050;-83
2023/05/04 11:25:35;;;;;;;4.78;4.38;;;29.00;50.60;;;;;;6200868;28;20039;-82
2023/05/04 11:28:38;;;;;;;5.55;4.63;;;29.20;50.20;;;;;;6197891;28;20066;-83
2023/05/04 11:31:43;;;;;;;4.75;3.78;;;29.00;49.50;;;;;;6196929;28;20054;-83
2023/05/04 11:34:46;;;;;;;3.65;3.35;;;29.10;49.40;;;;;;6196967;28;20058;-83
2023/05/04 11:37:48;;;;;;;3.55;3.25;;;29.20;49.90;;;;;;6195635;28;20051;-83
2023/05/04 11:40:50;;;;;;;5.88;3.70;;;29.40;49.50;;;;;;6195418;28;20057;-83
2023/05/04 11:43:52;;;;;;;5.53;3.45;;;29.70;49.00;;;;;;6198795;28;20042;-83
2023/05/04 11:46:55;;;;;;;6.07;3.47;;;30.00;48.70;;;;;;6193399;28;20051;-82
2023/05/04 11:49:57;;;;;;;4.80;3.58;;;30.30;48.60;;;;;;6219007;28;20108;-82
2023/05/04 11:53:04;;;;;;;8.15;3.88;;;30.40;47.40;;;;;;6219890;28;20084;-81
2023/05/04 11:56:07;;;;;;;4.30;3.83;;;30.50;46.90;;;;;;6219768;28;20046;-81
2023/05/04 11:59:09;;;;;;;3.38;3.08;;;30.60;46.30;;;;;;6221051;28;20090;-81
2023/05/04 12:02:17;;;;;;;4.82;3.50;;;30.40;46.20;;;;;;6218942;28;20046;-82
2023/05/04 12:05:19;;;;;;;4.18;3.38;;;30.30;46.00;;;;;;6213535;28;20048;-81
2023/05/04 12:08:25;;;;;;;4.40;3.58;;;30.50;46.10;;;;;;6195761;28;20054;-82
2023/05/04 12:11:27;;;;;;;3.80;3.23;;;30.60;44.50;;;;;;6196343;28;20057;-81
2023/05/04 12:14:29;;;;;;;6.18;3.08;;;30.30;45.20;;;;;;6201911;28;20300;-81
2023/05/04 12:17:41;;;;;;;4.75;3.63;;;30.30;45.10;;;;;;6202944;28;20038;-80
2023/05/04 12:20:43;;;;;;;6.97;3.70;;;30.20;45.00;;;;;;6218705;28;20050;-81
2023/05/04 12:23:45;;;;;;;3.42;2.90;;;30.30;45.10;;;;;;6216751;28;20057;-81
2023/05/04 12:26:47;;;;;;;3.58;3.28;;;30.50;44.90;;;;;;6216956;28;20043;-82
2023/05/04 12:29:49;;;;;;;5.75;3.75;;;30.50;44.10;;;;;;6220658;28;20052;-81
2023/05/04 12:32:52;;;;;;;5.03;3.38;;;30.20;43.80;;;;;;6217378;28;20050;-81
2023/05/04 12:35:54;;;;;;;4.55;3.05;;;29.90;43.60;;;;;;6219596;28;20049;-81
2023/05/04 12:38:55;;;;;;;3.25;2.95;;;29.90;44.00;;;;;;6220303;28;20050;-82
2023/05/04 12:41:57;;;;;;;3.30;3.00;;;30.00;43.90;;;;;;6221246;28;20058;-82
2023/05/04 12:44:59;;;;;;;3.88;3.45;;;30.00;43.40;;;;;;6215318;28;20057;-82
2023/05/04 12:48:03;;;;;;;4.28;3.03;;;30.00;43.50;;;;;;6204249;28;20057;-82
2023/05/04 12:51:05;;;;;;;6.57;2.90;;;30.10;43.50;;;;;;6220758;28;20050;-80
2023/05/04 12:54:06;;;;;;;3.42;2.58;;;30.30;43.40;;;;;;6221391;28;20077;-81
2023/05/04 12:57:08;;;;;;;6.47;3.05;;;30.50;42.70;;;;;;6219448;28;20050;-82
2023/05/04 13:00:11;;;;;;;3.13;2.80;;;30.40;42.20;;;;;;6196673;28;20050;-81
2023/05/04 13:03:16;;;;;;;2.60;2.40;;;30.40;42.50;;;;;;6194892;28;20058;-82
2023/05/04 13:06:18;;;;;;;3.10;2.47;;;30.90;42.00;;;;;;6199454;28;20073;-82
2023/05/04 13:09:20;;;;;;;3.08;2.88;;;31.20;41.90;;;;;;6200543;28;20109;-82
2023/05/04 13:12:22;;;;;;;3.05;2.75;;;31.40;41.80;;;;;;6200672;28;20062;-81
2023/05/04 13:15:23;;;;;;;4.43;2.97;;;31.50;42.10;;;;;;6196804;28;22843;-82
2023/05/04 13:18:27;;;;;;;3.58;2.60;;;31.50;41.80;;;;;;6187412;28;20126;-79
2023/05/04 13:21:29;;;;;;;2.80;2.58;;;31.50;41.60;;;;;;6183837;28;20509;-79
2023/05/04 13:24:30;;;;;;;4.43;2.33;;;31.20;40.70;;;;;;6179612;28;20053;-79
2023/05/04 13:27:32;;;;;;;3.75;2.75;;;31.10;40.70;;;;;;6175069;28;20047;-79
2023/05/04 13:30:34;;;;;;;2.65;2.45;;;31.20;40.60;;;;;;6177102;28;20120;-79
2023/05/04 13:33:37;;;;;;;6.70;3.13;;;31.40;40.90;;;;;;6173338;28;20058;-79
2023/05/04 13:36:39;;;;;;;4.65;2.75;;;31.40;39.80;;;;;;6177649;28;20071;-79
2023/05/04 13:39:41;;;;;;;3.50;2.22;;;31.30;39.50;;;;;;6179633;28;20071;-78
2023/05/04 13:42:43;;;;;;;2.40;2.20;;;31.20;40.40;;;;;;6176534;28;20042;-78
2023/05/04 13:45:45;;;;;;;2.15;1.95;;;31.20;39.80;;;;;;6176963;28;20046;-79
2023/05/04 13:48:48;;;;;;;2.80;2.53;;;31.20;39.40;;;;;;6181236;28;20046;-78
2023/05/04 13:51:50;;;;;;;2.47;2.28;;;31.00;39.10;;;;;;6183626;28;20073;-79
2023/05/04 13:54:52;;;;;;;3.42;2.42;;;30.90;39.60;;;;;;6182236;28;20054;-79
2023/05/04 13:57:54;;;;;;;2.60;2.40;;;30.60;39.10;;;;;;6185507;28;20042;-79
2023/05/04 14:00:56;;;;;;;7.30;2.80;;;30.30;40.10;;;;;;6182465;28;20042;-79
2023/05/04 14:03:59;;;;;;;3.22;2.70;;;30.50;40.20;;;;;;6186027;28;20065;-80
2023/05/04 14:07:01;;;;;;;4.70;2.67;;;30.80;39.40;;;;;;6182923;28;20050;-79
2023/05/04 14:10:03;;;;;;;3.80;2.80;;;30.50;39.70;;;;;;6188178;28;20054;-80
2023/05/04 14:13:05;;;;;;;5.20;2.17;;;30.50;39.80;;;;;;6183263;28;20058;-80
2023/05/04 14:16:07;;;;;;;3.17;2.90;;;30.60;39.40;;;;;;6184547;28;20054;-78
2023/05/04 14:19:10;;;;;;;4.35;2.72;;;30.50;38.80;;;;;;6187508;28;20420;-79
2023/05/04 14:22:11;;;;;;;10.20;2.42;;;30.40;39.20;;;;;;6181754;28;20047;-80
2023/05/04 14:25:13;;;;;;;3.80;2.40;;;30.30;39.00;;;;;;6185589;28;20046;-80
2023/05/04 14:28:15;;;;;;;2.80;2.45;;;30.20;39.30;;;;;;6184108;28;20077;-79
2023/05/04 14:31:17;;;;;;;5.88;3.10;;;30.10;39.80;;;;;;6183791;28;20061;-78
2023/05/04 14:34:20;;;;;;;4.28;2.47;;;30.20;39.30;;;;;;6177196;28;20057;-78
2023/05/04 14:37:21;;;;;;;3.58;2.90;;;30.00;39.00;;;;;;6178024;28;20050;-78
2023/05/04 14:40:26;;;;;;;10.27;2.70;;;30.00;39.20;;;;;;6180453;28;20054;-78
2023/05/04 14:43:28;;;;;;;2.42;2.10;;;30.00;39.30;;;;;;6177042;28;20440;-78
2023/05/04 14:46:30;;;;;;;4.47;3.15;;;30.10;39.00;;;;;;6177564;28;20082;-78
2023/05/04 14:49:33;;;;;;;2.67;2.47;;;30.20;39.10;;;;;;6176390;28;20051;-78
2023/05/04 14:52:34;;;;;;;4.70;3.38;;;30.40;39.20;;;;;;6176598;28;20047;-77
2023/05/04 14:55:40;;;;;;;3.20;2.88;;;30.70;38.60;;;;;;6177064;28;20078;-78
2023/05/04 14:58:42;;;;;;;4.78;2.75;;;30.60;38.40;;;;;;6180431;28;20054;-78
2023/05/04 15:01:43;;;;;;;7.78;2.60;;;30.60;38.50;;;;;;6182598;28;20656;-78
2023/05/04 15:04:47;;;;;;;8.02;2.50;;;30.30;38.40;;;;;;6178838;28;20043;-78
2023/05/04 15:07:48;;;;;;;3.72;2.95;;;30.20;38.70;;;;;;6185407;28;20102;-78
2023/05/04 15:10:50;;;;;;;2.80;2.28;;;30.20;38.90;;;;;;6184589;28;20571;-79
2023/05/04 15:13:54;;;;;;;3.75;2.35;;;30.40;38.70;;;;;;6186772;28;20053;-79
2023/05/04 15:16:56;;;;;;;6.22;2.90;;;30.10;38.30;;;;;;6194224;28;20050;-79
2023/05/04 15:20:00;;;;;;;2.90;2.20;;;29.70;38.70;;;;;;6199240;28;20058;-81
2023/05/04 15:23:04;;;;;;;16.55;2.97;;;29.50;38.60;;;;;;6201624;28;20060;-82
2023/05/04 15:26:05;;;;;;;3.40;2.38;;;29.30;38.70;;;;;;6196917;28;20070;-82
2023/05/04 15:29:07;;;;;;;3.22;2.20;;;29.20;39.00;;;;;;6199678;28;20053;-82
2023/05/04 15:32:09;;;;;;;5.72;2.80;;;29.30;39.40;;;;;;6200622;28;20573;-82
2023/05/04 15:35:12;;;;;;;6.07;3.05;;;29.40;39.00;;;;;;6196901;28;20066;-82
2023/05/04 15:38:13;;;;;;;3.67;2.58;;;29.10;38.80;;;;;;6195939;28;20146;-82
2023/05/04 15:41:15;;;;;;;4.70;2.83;;;28.80;38.70;;;;;;6202327;28;20054;-85
2023/05/04 15:44:19;;;;;;;2.47;2.28;;;28.80;39.10;;;;;;6199100;28;20046;-82
2023/05/04 15:47:21;;;;;;;4.20;2.95;;;28.60;39.20;;;;;;6196755;28;20042;-82
2023/05/04 15:50:24;;;;;;;2.97;2.35;;;28.40;39.50;;;;;;6200998;28;20042;-82
2023/05/04 15:53:26;;;;;;;4.90;2.80;;;28.40;40.00;;;;;;6198608;28;20054;-83
2023/05/04 15:56:28;;;;;;;3.67;3.03;;;28.20;40.00;;;;;;6198778;28;20050;-82